createdAt,value
2022-10-25T00:01:25.535Z,1.27
2022-10-25T00:03:53.609Z,1.23
2022-10-25T00:06:21.086Z,1.15
2022-10-25T00:08:48.949Z,0.90
2022-10-25T00:11:26.473Z,1.20
2022-10-25T00:13:55.787Z,1.10
2022-10-25T00:16:27.198Z,1.23
2022-10-25T00:18:54.874Z,1.25
2022-10-25T00:21:22.852Z,1.13
2022-10-25T00:23:51.338Z,1.00
2022-10-25T00:26:19.308Z,0.90
2022-10-25T00:28:46.688Z,0.90
2022-10-25T00:31:17.070Z,1.00
2022-10-25T00:33:45.279Z,1.00
2022-10-25T00:36:15.868Z,1.40
2022-10-25T00:38:44.316Z,0.80
2022-10-25T00:41:12.747Z,0.90
2022-10-25T00:43:41.535Z,1.17
2022-10-25T00:46:24.340Z,1.20
2022-10-25T00:49:02.934Z,1.08
2022-10-25T00:51:37.590Z,0.80
2022-10-25T00:54:07.146Z,1.00
2022-10-25T00:56:38.931Z,1.17
2022-10-25T00:59:10.547Z,1.00
2022-10-25T01:01:38.921Z,1.00
2022-10-25T01:04:10.539Z,0.82
2022-10-25T01:06:43.104Z,0.90
2022-10-25T01:09:12.976Z,1.02
2022-10-25T01:11:40.376Z,1.00
2022-10-25T01:14:12.460Z,1.05
2022-10-25T01:17:07.555Z,1.10
2022-10-25T01:20:06.346Z,1.15
2022-10-25T01:23:11.060Z,0.90
2022-10-25T01:26:11.419Z,1.10
2022-10-25T01:28:57.547Z,0.98
2022-10-25T01:31:37.511Z,1.33
2022-10-25T01:34:23.452Z,0.90
2022-10-25T01:37:17.395Z,1.00
2022-10-25T01:39:53.336Z,1.00
2022-10-25T01:42:32.985Z,0.95
2022-10-25T01:45:03.021Z,1.02
2022-10-25T01:47:39.922Z,1.10
2022-10-25T01:50:18.136Z,0.80
2022-10-25T01:52:45.464Z,1.00
2022-10-25T01:55:14.247Z,1.40
2022-10-25T01:58:07.649Z,1.15
2022-10-25T02:00:50.692Z,1.00
2022-10-25T02:03:33.861Z,0.80
2022-10-25T02:06:22.170Z,1.00
2022-10-25T02:09:08.433Z,1.20
2022-10-25T02:11:36.642Z,0.95
2022-10-25T02:14:20.278Z,1.00
2022-10-25T02:16:56.556Z,1.00
2022-10-25T02:19:34.029Z,1.33
2022-10-25T02:22:02.612Z,1.45
2022-10-25T02:24:32.219Z,1.13
2022-10-25T02:27:00.438Z,1.05
2022-10-25T02:29:31.898Z,0.80
2022-10-25T02:31:59.597Z,1.15
2022-10-25T02:34:26.834Z,1.02
2022-10-25T02:36:54.482Z,1.05
2022-10-25T02:39:27.765Z,1.48
2022-10-25T02:41:57.775Z,1.52
2022-10-25T02:44:24.957Z,1.20
2022-10-25T02:46:52.257Z,1.20
2022-10-25T02:49:19.628Z,1.10
2022-10-25T02:51:47.063Z,1.10
2022-10-25T02:54:14.268Z,0.90
2022-10-25T02:56:41.598Z,1.10
2022-10-25T02:59:12.805Z,1.20
2022-10-25T03:01:40.097Z,1.50
2022-10-25T03:04:07.354Z,1.00
2022-10-25T03:06:34.575Z,1.05
2022-10-25T03:09:01.746Z,1.10
2022-10-25T03:11:29.173Z,1.08
2022-10-25T03:13:56.399Z,1.10
2022-10-25T03:16:23.798Z,1.10
2022-10-25T03:18:51.103Z,1.25
2022-10-25T03:21:18.321Z,1.27
2022-10-25T03:23:45.610Z,1.23
2022-10-25T03:26:12.918Z,1.60
2022-10-25T03:28:40.150Z,0.90
2022-10-25T03:31:12.804Z,1.10
2022-10-25T03:33:40.427Z,1.10
2022-10-25T03:36:08.031Z,1.38
2022-10-25T03:38:35.309Z,1.02
2022-10-25T03:41:02.564Z,1.25
2022-10-25T03:43:29.866Z,1.00
2022-10-25T03:45:57.138Z,1.60
2022-10-25T03:48:24.386Z,1.27
2022-10-25T03:50:51.634Z,1.60
2022-10-25T03:53:18.865Z,2.25
2022-10-25T03:55:46.100Z,2.20
2022-10-25T03:58:13.318Z,2.05
2022-10-25T04:00:40.692Z,1.85
2022-10-25T04:03:09.213Z,2.55
2022-10-25T04:05:36.568Z,2.25
2022-10-25T04:08:03.929Z,2.33
2022-10-25T04:10:31.157Z,2.17
2022-10-25T04:12:59.190Z,2.00
2022-10-25T04:15:26.569Z,1.70
2022-10-25T04:17:54.354Z,2.30
2022-10-25T04:20:22.150Z,2.10
2022-10-25T04:22:56.815Z,2.65
2022-10-25T04:25:25.785Z,2.22
2022-10-25T04:27:53.161Z,2.13
2022-10-25T04:30:20.516Z,2.13
2022-10-25T04:32:48.035Z,1.90
2022-10-25T04:35:15.611Z,1.60
2022-10-25T04:37:42.803Z,1.70
2022-10-25T04:40:10.939Z,1.42
2022-10-25T04:42:38.132Z,1.88
2022-10-25T04:45:05.797Z,1.60
2022-10-25T04:47:33.468Z,1.35
2022-10-25T04:50:00.877Z,1.70
2022-10-25T04:52:32.119Z,1.60
2022-10-25T04:55:00.153Z,1.60
2022-10-25T04:57:27.395Z,1.70
2022-10-25T04:59:56.425Z,1.77
2022-10-25T05:02:24.491Z,2.13
2022-10-25T05:04:51.819Z,1.75
2022-10-25T05:07:19.900Z,2.13
2022-10-25T05:09:47.630Z,2.05
2022-10-25T05:12:15.541Z,1.88
2022-10-25T05:14:42.964Z,1.77
2022-10-25T05:17:10.251Z,1.98
2022-10-25T05:19:37.607Z,2.38
2022-10-25T05:22:04.895Z,2.40
2022-10-25T05:24:32.263Z,2.17
2022-10-25T05:26:59.493Z,2.20
2022-10-25T05:29:26.965Z,2.47
2022-10-25T05:31:54.244Z,2.88
2022-10-25T05:34:21.578Z,2.78
2022-10-25T05:36:48.826Z,2.10
2022-10-25T05:39:16.065Z,2.10
2022-10-25T05:41:43.378Z,1.98
2022-10-25T05:44:10.836Z,1.98
2022-10-25T05:46:38.390Z,2.42
2022-10-25T05:49:05.670Z,1.67
2022-10-25T05:51:35.129Z,2.17
2022-10-25T05:54:06.497Z,2.05
2022-10-25T05:56:34.890Z,1.80
2022-10-25T05:59:09.727Z,2.13
2022-10-25T06:01:39.639Z,1.75
2022-10-25T06:04:07.713Z,2.00
2022-10-25T06:06:36.308Z,2.20
2022-10-25T06:09:04.536Z,2.80
2022-10-25T06:11:32.720Z,2.50
2022-10-25T06:14:00.263Z,2.22
2022-10-25T06:16:27.560Z,4.53
2022-10-25T06:18:55.067Z,3.47
2022-10-25T06:21:24.855Z,2.75
2022-10-25T06:23:52.820Z,2.50
2022-10-25T06:26:25.319Z,2.33
2022-10-25T06:28:57.608Z,2.45
2022-10-25T06:31:24.902Z,2.90
2022-10-25T06:33:52.924Z,3.03
2022-10-25T06:36:22.666Z,3.08
2022-10-25T06:38:50.640Z,2.65
2022-10-25T06:41:20.678Z,3.28
2022-10-25T06:43:48.616Z,3.00
2022-10-25T06:46:28.281Z,2.95
2022-10-25T06:48:57.456Z,3.10
2022-10-25T06:51:25.943Z,3.22
2022-10-25T06:53:58.264Z,3.28
2022-10-25T06:56:26.601Z,3.20
2022-10-25T06:58:54.767Z,3.40
2022-10-25T07:01:23.623Z,3.38
2022-10-25T07:03:53.551Z,3.33
2022-10-25T07:06:29.579Z,3.13
2022-10-25T07:09:01.132Z,2.72
2022-10-25T07:11:31.229Z,2.50
2022-10-25T07:13:59.894Z,2.60
2022-10-25T07:16:28.239Z,2.60
2022-10-25T07:19:00.792Z,2.88
2022-10-25T07:21:30.058Z,4.20
2022-10-25T07:23:57.395Z,3.88
2022-10-25T07:26:27.721Z,3.22
2022-10-25T07:28:57.186Z,2.88
2022-10-25T07:31:30.222Z,3.13
2022-10-25T07:33:59.715Z,3.17
2022-10-25T07:36:27.724Z,2.97
2022-10-25T07:38:55.153Z,2.92
2022-10-25T07:41:22.624Z,2.45
2022-10-25T07:43:50.002Z,3.17
2022-10-25T07:46:17.659Z,2.78
2022-10-25T07:48:45.103Z,2.72
2022-10-25T07:51:14.473Z,2.42
2022-10-25T07:53:42.040Z,2.47
2022-10-25T07:56:22.121Z,2.75
2022-10-25T07:58:52.257Z,3.10
2022-10-25T08:01:28.006Z,2.72
2022-10-25T08:03:56.025Z,2.60
2022-10-25T08:06:24.731Z,2.42
2022-10-25T08:08:52.278Z,2.50
2022-10-25T08:11:20.003Z,2.05
2022-10-25T08:13:50.363Z,2.05
2022-10-25T08:16:18.129Z,2.35
2022-10-25T08:18:45.586Z,2.42
2022-10-25T08:21:12.874Z,2.20
2022-10-25T08:23:40.216Z,2.05
2022-10-25T08:26:07.490Z,2.20
2022-10-25T08:28:34.771Z,2.10
2022-10-25T08:31:02.190Z,1.83
2022-10-25T08:33:30.064Z,2.22
2022-10-25T08:36:01.419Z,2.67
2022-10-25T08:38:29.269Z,2.10
2022-10-25T08:41:10.363Z,2.40
2022-10-25T08:44:03.457Z,1.90
2022-10-25T08:46:43.675Z,2.00
2022-10-25T08:49:22.131Z,2.15
2022-10-25T08:51:54.129Z,2.25
2022-10-25T08:54:27.366Z,1.92
2022-10-25T08:57:28.074Z,2.22
2022-10-25T08:59:58.391Z,2.10
2022-10-25T09:02:51.389Z,2.00
2022-10-25T09:06:05.684Z,2.20
2022-10-25T09:08:38.775Z,2.08
2022-10-25T09:11:31.586Z,2.00
2022-10-25T09:14:07.398Z,1.92
2022-10-25T09:17:07.284Z,2.20
2022-10-25T09:19:45.333Z,2.10
2022-10-25T09:22:27.143Z,2.65
2022-10-25T09:25:20.180Z,2.35
2022-10-25T09:27:59.256Z,1.90
2022-10-25T09:30:30.051Z,2.10
2022-10-25T09:33:03.181Z,2.25
2022-10-25T09:35:41.800Z,1.90
2022-10-25T09:38:19.444Z,2.05
2022-10-25T09:40:51.057Z,2.20
2022-10-25T09:43:23.356Z,2.58
2022-10-25T09:45:57.269Z,2.40
2022-10-25T09:48:39.156Z,2.20
2022-10-25T09:51:15.077Z,2.22
2022-10-25T09:53:45.209Z,2.22
2022-10-25T09:56:12.779Z,2.22
2022-10-25T09:58:47.706Z,2.33
2022-10-25T10:01:21.422Z,1.83
2022-10-25T10:03:53.159Z,1.90
2022-10-25T10:06:24.499Z,2.13
2022-10-25T10:08:54.746Z,2.22
2022-10-25T10:11:22.000Z,2.20
2022-10-25T10:13:55.656Z,2.20
2022-10-25T10:16:38.613Z,2.42
2022-10-25T10:19:19.325Z,2.15
2022-10-25T10:21:49.779Z,2.20
2022-10-25T10:24:22.863Z,3.63
2022-10-25T10:26:55.609Z,2.58
2022-10-25T10:29:24.000Z,2.10
2022-10-25T10:31:53.936Z,2.13
2022-10-25T10:34:51.103Z,2.20
2022-10-25T10:37:28.585Z,2.30
2022-10-25T10:40:01.546Z,2.05
2022-10-25T10:45:15.456Z,2.72
2022-10-25T10:47:55.211Z,2.53
2022-10-25T10:50:25.849Z,2.40
2022-10-25T10:53:02.672Z,2.35
2022-10-25T10:55:33.522Z,2.78
2022-10-25T10:58:04.318Z,2.63
2022-10-25T11:00:33.260Z,2.08
2022-10-25T11:03:01.010Z,2.10
2022-10-25T11:05:32.557Z,2.33
2022-10-25T11:08:02.580Z,2.97
2022-10-25T11:10:34.782Z,2.30
2022-10-25T11:13:05.314Z,2.50
2022-10-25T11:15:54.141Z,2.80
2022-10-25T11:18:42.094Z,3.08
2022-10-25T11:21:27.181Z,2.47
2022-10-25T11:24:34.295Z,2.83
2022-10-25T11:27:05.578Z,2.58
2022-10-25T11:30:10.992Z,2.33
2022-10-25T11:33:17.113Z,2.20
2022-10-25T11:36:13.875Z,3.05
2022-10-25T11:38:46.551Z,2.42
2022-10-25T11:41:46.154Z,2.60
2022-10-25T11:44:43.051Z,2.50
2022-10-25T11:47:29.611Z,2.85
2022-10-25T11:50:28.793Z,2.65
2022-10-25T11:53:26.008Z,2.70
2022-10-25T11:56:33.603Z,3.13
2022-10-25T11:59:19.132Z,2.80
2022-10-25T12:02:00.904Z,2.78
2022-10-25T12:05:09.490Z,3.25
2022-10-25T12:08:11.632Z,2.60
2022-10-25T12:10:54.782Z,2.85
2022-10-25T12:13:40.910Z,2.88
2022-10-25T12:16:14.390Z,2.78
2022-10-25T12:19:09.107Z,2.92
2022-10-25T12:21:43.742Z,3.50
2022-10-25T12:24:21.010Z,3.53
2022-10-25T12:26:51.768Z,3.47
2022-10-25T12:29:29.703Z,3.58
2022-10-25T12:32:00.976Z,3.60
2022-10-25T12:34:52.595Z,3.58
2022-10-25T12:37:20.067Z,4.07
2022-10-25T12:39:47.848Z,3.78
2022-10-25T12:42:17.976Z,3.60
2022-10-25T12:45:23.762Z,3.67
2022-10-25T12:48:28.076Z,3.88
2022-10-25T12:50:58.101Z,3.00
2022-10-25T12:53:49.167Z,3.60
2022-10-25T12:56:43.166Z,3.67
2022-10-25T12:59:32.899Z,3.50
2022-10-25T13:02:03.219Z,3.70
2022-10-25T13:04:39.324Z,4.30
2022-10-25T13:07:07.906Z,4.10
2022-10-25T13:09:37.433Z,4.10
2022-10-25T13:12:30.492Z,4.38
2022-10-25T13:14:59.479Z,4.78
2022-10-25T13:17:26.691Z,4.80
2022-10-25T13:20:14.766Z,4.63
2022-10-25T13:22:43.012Z,4.32
2022-10-25T13:25:12.935Z,4.80
2022-10-25T13:28:11.892Z,4.50
2022-10-25T13:30:39.089Z,4.85
2022-10-25T13:33:24.634Z,4.70
2022-10-25T13:35:51.838Z,5.00
2022-10-25T13:38:35.256Z,5.10
2022-10-25T13:41:12.394Z,4.85
2022-10-25T13:43:59.909Z,4.88
2022-10-25T13:46:36.633Z,4.95
2022-10-25T13:49:32.000Z,5.25
2022-10-25T13:52:05.218Z,5.20
2022-10-25T13:54:43.243Z,4.88
2022-10-25T13:57:46.931Z,5.03
2022-10-25T14:00:34.976Z,4.97
2022-10-25T14:03:08.623Z,5.07
2022-10-25T14:05:56.890Z,4.70
2022-10-25T14:09:01.239Z,4.75
2022-10-25T14:11:53.148Z,4.55
2022-10-25T14:14:43.443Z,4.70
2022-10-25T14:17:38.418Z,4.13
2022-10-25T14:20:23.228Z,4.05
2022-10-25T14:23:01.833Z,4.30
2022-10-25T14:25:41.621Z,4.20
2022-10-25T14:28:27.451Z,4.45
2022-10-25T14:31:05.381Z,4.50
2022-10-25T14:33:51.193Z,4.50
2022-10-25T14:36:37.978Z,4.18
2022-10-25T14:39:16.888Z,4.10
2022-10-25T14:41:51.868Z,4.25
2022-10-25T14:44:29.641Z,4.57
2022-10-25T14:46:58.835Z,4.40
2022-10-25T14:49:27.325Z,4.20
2022-10-25T14:51:59.850Z,4.75
2022-10-25T14:54:32.388Z,5.00
2022-10-25T14:57:06.491Z,4.63
2022-10-25T14:59:44.479Z,4.32
2022-10-25T15:02:19.665Z,4.50
2022-10-25T15:04:50.086Z,4.38
2022-10-25T15:07:25.757Z,4.60
2022-10-25T15:09:55.418Z,4.68
2022-10-25T15:12:25.311Z,5.10
2022-10-25T15:14:54.367Z,4.30
2022-10-25T15:17:31.057Z,5.22
2022-10-25T15:20:06.310Z,4.10
2022-10-25T15:22:39.402Z,4.28
2022-10-25T15:25:20.229Z,4.38
2022-10-25T15:27:48.584Z,4.90
2022-10-25T15:30:44.047Z,4.70
2022-10-25T15:33:21.680Z,4.63
2022-10-25T15:35:52.009Z,4.60
2022-10-25T15:38:19.607Z,4.68
2022-10-25T15:40:48.272Z,4.22
2022-10-25T15:43:15.912Z,5.00
2022-10-25T15:45:44.136Z,4.95
2022-10-25T15:48:21.201Z,4.45
2022-10-25T15:50:52.091Z,4.60
2022-10-25T15:53:20.131Z,4.80
2022-10-25T15:55:49.260Z,5.00
2022-10-25T15:58:16.530Z,4.60
2022-10-25T16:00:45.241Z,4.00
2022-10-25T16:03:22.161Z,4.60
2022-10-25T16:05:50.881Z,4.18
2022-10-25T16:08:18.452Z,4.60
2022-10-25T16:10:46.185Z,5.07
2022-10-25T16:13:23.421Z,5.57
2022-10-25T16:15:50.878Z,5.10
2022-10-25T16:18:18.252Z,5.20
2022-10-25T16:20:45.535Z,5.63
2022-10-25T16:23:12.870Z,3.83
2022-10-25T16:25:40.145Z,4.38
2022-10-25T16:28:13.540Z,4.30
2022-10-25T16:30:43.107Z,4.85
2022-10-25T16:33:11.218Z,3.92
2022-10-25T16:35:38.524Z,3.67
2022-10-25T16:40:35.815Z,3.65
2022-10-25T16:43:03.548Z,3.45
2022-10-25T16:45:33.492Z,3.42
2022-10-25T16:50:32.971Z,3.88
2022-10-25T16:53:03.055Z,3.88
2022-10-25T16:55:30.716Z,4.10
2022-10-25T16:57:59.107Z,3.80
2022-10-25T17:00:27.933Z,4.25
2022-10-25T17:02:55.533Z,4.30
2022-10-25T17:05:28.853Z,4.72
2022-10-25T17:07:56.130Z,4.22
2022-10-25T17:10:23.541Z,5.45
2022-10-25T17:12:53.557Z,4.78
2022-10-25T17:15:21.482Z,5.15
2022-10-25T17:17:49.187Z,5.60
2022-10-25T17:20:17.569Z,5.20
2022-10-25T17:22:45.204Z,5.88
2022-10-25T17:25:13.874Z,5.30
2022-10-25T17:27:47.836Z,5.18
2022-10-25T17:30:19.692Z,5.20
2022-10-25T17:32:47.254Z,5.28
2022-10-25T17:35:14.661Z,5.03
2022-10-25T17:37:44.407Z,5.18
2022-10-25T17:40:13.897Z,5.97
2022-10-25T17:42:41.282Z,6.70
2022-10-25T17:45:09.035Z,6.35
2022-10-25T17:47:37.734Z,7.60
2022-10-25T17:50:06.016Z,8.15
2022-10-25T17:52:33.252Z,9.57
2022-10-25T17:55:00.848Z,10.38
2022-10-25T17:57:28.361Z,10.15
2022-10-25T17:59:58.230Z,9.93
2022-10-25T18:02:25.706Z,11.38
2022-10-25T18:05:15.412Z,11.63
2022-10-25T18:07:41.665Z,9.85
2022-10-25T18:10:09.690Z,11.02
2022-10-25T18:12:37.203Z,10.80
2022-10-25T18:15:06.105Z,11.10
2022-10-25T18:17:33.632Z,11.00
2022-10-25T18:20:01.084Z,11.30
2022-10-25T18:22:28.435Z,10.15
2022-10-25T18:24:55.646Z,10.73
2022-10-25T18:27:23.043Z,11.38
2022-10-25T18:29:50.411Z,9.90
2022-10-25T18:32:17.695Z,7.38
2022-10-25T18:34:44.990Z,6.75
2022-10-25T18:37:12.234Z,6.63
2022-10-25T18:39:39.438Z,6.20
2022-10-25T18:42:06.751Z,7.18
2022-10-25T18:44:34.037Z,5.88
2022-10-25T18:47:01.384Z,5.97
2022-10-25T18:49:28.654Z,6.20
2022-10-25T18:51:56.791Z,6.63
2022-10-25T18:54:25.109Z,7.20
2022-10-25T18:56:52.459Z,7.38
2022-10-25T18:59:20.092Z,5.90
2022-10-25T19:01:47.478Z,5.82
2022-10-25T19:04:16.848Z,6.78
2022-10-25T19:06:44.521Z,9.55
2022-10-25T19:09:14.495Z,8.05
2022-10-25T19:11:41.776Z,6.65
2022-10-25T19:14:09.466Z,7.15
2022-10-25T19:16:38.007Z,7.60
2022-10-25T19:19:08.782Z,6.25
2022-10-25T19:21:36.340Z,6.97
2022-10-25T19:24:03.980Z,5.50
2022-10-25T19:26:33.446Z,4.72
2022-10-25T19:29:01.528Z,4.80
2022-10-25T19:31:29.450Z,4.72
2022-10-25T19:34:00.647Z,5.78
2022-10-25T19:36:28.239Z,4.65
2022-10-25T19:38:55.770Z,4.75
2022-10-25T19:41:24.266Z,4.93
2022-10-25T19:43:52.136Z,5.80
2022-10-25T19:46:19.780Z,5.13
2022-10-25T19:48:47.085Z,5.57
2022-10-25T19:51:23.368Z,4.85
2022-10-25T19:53:51.084Z,5.15
2022-10-25T19:56:20.743Z,5.32
2022-10-25T19:58:49.245Z,5.20
2022-10-25T20:01:19.566Z,5.38
2022-10-25T20:03:51.050Z,5.38
2022-10-25T20:06:24.300Z,5.60
2022-10-25T20:08:53.478Z,6.47
2022-10-25T20:11:22.310Z,6.55
2022-10-25T20:13:54.415Z,5.78
2022-10-25T20:16:22.970Z,5.50
2022-10-25T20:18:50.471Z,5.32
2022-10-25T20:21:23.988Z,5.22
2022-10-25T20:24:00.423Z,6.13
2022-10-25T20:26:33.110Z,6.40
2022-10-25T20:29:02.491Z,5.82
2022-10-25T20:31:32.004Z,5.43
2022-10-25T20:33:59.303Z,6.10
2022-10-25T20:36:27.265Z,6.60
2022-10-25T20:38:54.780Z,12.70
2022-10-25T20:41:25.111Z,6.80
2022-10-25T20:44:01.396Z,5.93
2022-10-25T20:46:29.491Z,5.45
2022-10-25T20:48:58.279Z,5.65
2022-10-25T20:51:26.171Z,5.97
2022-10-25T20:53:53.860Z,5.20
2022-10-25T20:56:22.303Z,6.30
2022-10-25T20:58:49.656Z,6.60
2022-10-25T21:01:17.925Z,6.38
2022-10-25T21:03:45.242Z,7.63
2022-10-25T21:06:13.614Z,7.80
2022-10-25T21:08:41.259Z,7.03
2022-10-25T21:11:11.994Z,6.90
2022-10-25T21:13:42.433Z,6.50
2022-10-25T21:16:15.400Z,7.00
2022-10-25T21:18:43.191Z,6.60
2022-10-25T21:21:18.093Z,6.57
2022-10-25T21:23:47.438Z,7.03
2022-10-25T21:26:15.071Z,7.20
2022-10-25T21:28:42.471Z,7.55
2022-10-25T21:31:12.334Z,6.53
2022-10-25T21:33:41.994Z,6.93
2022-10-25T21:36:12.422Z,6.85
2022-10-25T21:38:40.587Z,6.63
2022-10-25T21:41:27.030Z,10.88
2022-10-25T21:43:58.776Z,12.27
2022-10-25T21:46:28.151Z,8.25
2022-10-25T21:48:56.095Z,7.35
2022-10-25T21:51:24.622Z,7.03
2022-10-25T21:56:23.351Z,6.50
2022-10-25T21:58:51.585Z,6.75
2022-10-25T22:01:21.437Z,6.50
2022-10-25T22:03:49.106Z,6.65
2022-10-25T22:06:19.442Z,6.70
2022-10-25T22:08:47.463Z,6.53
2022-10-25T22:11:23.528Z,7.95
2022-10-25T22:14:02.464Z,7.10
2022-10-25T22:16:31.582Z,6.05
2022-10-25T22:19:04.719Z,6.47
2022-10-25T22:21:35.483Z,6.45
2022-10-25T22:24:06.552Z,6.00
2022-10-25T22:26:34.419Z,6.57
2022-10-25T22:29:01.827Z,8.93
2022-10-25T22:31:30.624Z,7.95
2022-10-25T22:34:00.476Z,8.05
2022-10-25T22:36:32.457Z,8.05
2022-10-25T22:41:29.267Z,7.03
2022-10-25T22:43:57.680Z,5.85
2022-10-25T22:46:32.968Z,6.93
2022-10-25T22:49:05.569Z,6.18
2022-10-25T22:51:32.997Z,6.53
2022-10-25T22:54:00.670Z,5.65
2022-10-25T22:56:29.972Z,5.88
2022-10-25T22:59:02.423Z,5.90
2022-10-25T23:01:36.842Z,5.25
2022-10-25T23:04:07.297Z,5.30
2022-10-25T23:06:38.340Z,5.60
2022-10-25T23:09:09.411Z,5.15
2022-10-25T23:11:39.300Z,5.40
2022-10-25T23:14:13.284Z,5.35
2022-10-25T23:16:43.949Z,5.72
2022-10-25T23:19:11.171Z,5.15
2022-10-25T23:21:38.479Z,5.43
2022-10-25T23:24:06.161Z,5.03
2022-10-25T23:26:36.656Z,5.45
2022-10-25T23:29:04.595Z,5.25
2022-10-25T23:31:32.352Z,4.80
2022-10-25T23:34:00.725Z,5.30
2022-10-25T23:36:30.523Z,5.03
2022-10-25T23:38:59.141Z,5.40
2022-10-25T23:41:26.514Z,5.05
2022-10-25T23:43:53.808Z,5.63
2022-10-25T23:46:21.072Z,5.03
2022-10-25T23:48:48.310Z,5.30
2022-10-25T23:51:18.202Z,5.00
2022-10-25T23:53:45.840Z,4.70
2022-10-25T23:56:13.854Z,5.22
2022-10-25T23:58:41.683Z,4.93
